Time;durP1;ratioP1;P1;durP2;ratioP2;P2;SDS_P1;SDS_P2;PMS_P1;PMS_P2;Temp;Humidity;BMP_temperature;BMP_pressure;BME280_temperature;BME280_humidity;BME280_pressure;Samples;Min_cycle;Max_cycle;Signal;HPM_P1;HPM_P2
2023/01/17 00:01:08;;;;;;;1.10;0.50;;;;;;;;;;5010055;28;20627;-88
2023/01/17 00:10:58;;;;;;;0.90;0.60;;;;;;;;;;5020757;28;20213;-89
2023/01/17 00:14:02;;;;;;;1.47;0.50;;;;;;;;;;5009830;28;20547;-89
2023/01/17 00:17:06;;;;;;;1.20;0.67;;;;;;;;;;4998730;28;20556;-89
2023/01/17 01:36:23;;;;;;;0.83;0.50;;;;;;;;;;5015179;28;20548;-87
2023/01/17 01:39:27;;;;;;;0.77;0.53;;;;;;;;;;5014217;28;20559;-88
2023/01/17 01:42:31;;;;;;;1.23;0.53;;;;;;;;;;5014711;28;21182;-88
2023/01/17 01:45:35;;;;;;;0.83;0.43;;;;;;;;;;5025780;28;20685;-88
2023/01/17 01:48:47;;;;;;;0.80;0.57;;;;;;;;;;5012842;28;20599;-88
2023/01/17 01:51:55;;;;;;;0.80;0.50;;;;;;;;;;5012985;28;20659;-87
2023/01/17 01:55:06;;;;;;;0.80;0.50;;;;;;;;;;5001921;28;20551;-88
2023/01/17 01:58:20;;;;;;;1.83;0.50;;;;;;;;;;5024101;28;20546;-88
2023/01/17 02:01:24;;;;;;;0.90;0.60;;;;;;;;;;5012555;28;20619;-87
2023/01/17 02:04:28;;;;;;;0.50;0.50;;;;;;;;;;5012460;28;20552;-87
2023/01/17 02:07:39;;;;;;;0.60;0.50;;;;;;;;;;5012936;28;20591;-87
2023/01/17 02:10:44;;;;;;;0.77;0.50;;;;;;;;;;5023594;28;20600;-87
2023/01/17 02:13:48;;;;;;;0.60;0.50;;;;;;;;;;5023434;28;21098;-87
2023/01/17 02:17:13;;;;;;;0.50;0.40;;;;;;;;;;5012494;28;20544;-88
2023/01/17 02:20:56;;;;;;;0.40;0.40;;;;;;;;;;5013176;28;20548;-87
2023/01/17 02:24:09;;;;;;;0.50;0.40;;;;;;;;;;5013243;28;20885;-88
2023/01/17 02:27:26;;;;;;;0.67;0.50;;;;;;;;;;5002106;28;20548;-88
2023/01/17 02:30:35;;;;;;;0.70;0.50;;;;;;;;;;5012883;28;20639;-88
2023/01/17 02:34:13;;;;;;;0.80;0.50;;;;;;;;;;5013397;28;20596;-87
2023/01/17 02:37:23;;;;;;;0.87;0.57;;;;;;;;;;5002206;28;20584;-88
2023/01/17 02:40:34;;;;;;;1.20;0.70;;;;;;;;;;5001789;28;20548;-88
2023/01/17 02:43:39;;;;;;;0.57;0.50;;;;;;;;;;5010978;28;20587;-88
2023/01/17 02:46:48;;;;;;;0.70;0.50;;;;;;;;;;5000089;28;20926;-87
2023/01/17 02:49:57;;;;;;;0.60;0.60;;;;;;;;;;5011171;28;20552;-87
2023/01/17 02:53:04;;;;;;;2.00;0.80;;;;;;;;;;5011808;28;21157;-88
2023/01/17 02:56:16;;;;;;;0.80;0.50;;;;;;;;;;5034537;28;20544;-87
2023/01/17 02:59:33;;;;;;;0.60;0.57;;;;;;;;;;5012092;28;20915;-88
2023/01/17 03:02:56;;;;;;;2.13;0.60;;;;;;;;;;5001526;28;20611;-88
2023/01/17 03:06:36;;;;;;;0.43;0.40;;;;;;;;;;5024715;28;20552;-87
2023/01/17 03:09:44;;;;;;;0.63;0.50;;;;;;;;;;5011215;28;20545;-87
2023/01/17 03:12:49;;;;;;;0.43;0.43;;;;;;;;;;5010667;28;20615;-88
2023/01/17 03:15:53;;;;;;;0.73;0.50;;;;;;;;;;5022186;28;20548;-87
2023/01/17 03:18:57;;;;;;;1.77;0.77;;;;;;;;;;5010640;28;20595;-88
2023/01/17 03:22:01;;;;;;;4.10;0.63;;;;;;;;;;5022858;28;20618;-88
2023/01/17 03:25:06;;;;;;;0.70;0.50;;;;;;;;;;5012969;28;20595;-87
2023/01/17 03:28:10;;;;;;;1.57;0.60;;;;;;;;;;5012942;28;20559;-87
2023/01/17 03:31:16;;;;;;;2.33;0.60;;;;;;;;;;5011970;28;20663;-87
2023/01/17 03:34:20;;;;;;;1.47;0.60;;;;;;;;;;5023518;28;20544;-87
2023/01/17 03:37:24;;;;;;;1.97;0.80;;;;;;;;;;5014047;28;20562;-86
2023/01/17 03:40:28;;;;;;;2.73;0.70;;;;;;;;;;5013520;28;20552;-87
2023/01/17 03:43:33;;;;;;;4.53;0.87;;;;;;;;;;5011682;28;20931;-87
2023/01/17 03:46:37;;;;;;;0.90;0.60;;;;;;;;;;5000850;28;20596;-86
2023/01/17 03:49:41;;;;;;;0.80;0.60;;;;;;;;;;5012418;28;20552;-86
2023/01/17 03:52:45;;;;;;;2.57;0.77;;;;;;;;;;5014079;28;20619;-86
2023/01/17 03:55:49;;;;;;;1.57;0.90;;;;;;;;;;5023016;28;20599;-86
2023/01/17 03:58:55;;;;;;;1.00;0.67;;;;;;;;;;5011965;28;20931;-86
2023/01/17 04:02:00;;;;;;;2.20;0.70;;;;;;;;;;5023205;28;20611;-86
2023/01/17 04:05:04;;;;;;;2.63;0.60;;;;;;;;;;5014142;28;20599;-87
2023/01/17 04:08:08;;;;;;;0.80;0.53;;;;;;;;;;5014047;28;20554;-86
2023/01/17 04:11:12;;;;;;;2.70;0.80;;;;;;;;;;5003258;28;20663;-87
2023/01/17 04:14:16;;;;;;;1.07;0.67;;;;;;;;;;5018710;28;20559;-87
2023/01/17 04:17:20;;;;;;;1.50;0.60;;;;;;;;;;5018070;28;20547;-87
2023/01/17 04:20:34;;;;;;;1.63;0.70;;;;;;;;;;5018119;28;20548;-87
2023/01/17 04:23:38;;;;;;;1.30;0.50;;;;;;;;;;5017809;28;21141;-87
2023/01/17 04:26:42;;;;;;;1.03;0.77;;;;;;;;;;5029030;28;20548;-87
2023/01/17 04:29:46;;;;;;;2.53;0.60;;;;;;;;;;5017493;28;20552;-87
2023/01/17 04:32:50;;;;;;;3.60;0.60;;;;;;;;;;5017553;28;20615;-88
2023/01/17 04:35:54;;;;;;;0.60;0.60;;;;;;;;;;5031993;28;21102;-87
2023/01/17 04:38:59;;;;;;;0.80;0.63;;;;;;;;;;5024229;28;20551;-88
2023/01/17 04:42:03;;;;;;;1.00;0.77;;;;;;;;;;5023886;28;20615;-87
2023/01/17 04:45:08;;;;;;;1.40;0.60;;;;;;;;;;5022051;28;20614;-87
2023/01/17 04:48:12;;;;;;;0.73;0.60;;;;;;;;;;5012314;28;20547;-87
2023/01/17 04:51:16;;;;;;;0.80;0.60;;;;;;;;;;5011726;28;20659;-87
2023/01/17 04:54:20;;;;;;;0.90;0.70;;;;;;;;;;5011634;28;20556;-87
2023/01/17 04:57:25;;;;;;;0.67;0.50;;;;;;;;;;5022934;28;20548;-88
2023/01/17 05:00:29;;;;;;;0.60;0.60;;;;;;;;;;5011058;28;20547;-87
2023/01/17 05:03:33;;;;;;;1.03;0.70;;;;;;;;;;5022113;28;20547;-87
2023/01/17 05:06:38;;;;;;;1.10;0.63;;;;;;;;;;5021611;28;20920;-87
2023/01/17 05:09:42;;;;;;;3.40;0.77;;;;;;;;;;5020842;28;20551;-87
2023/01/17 05:12:57;;;;;;;1.17;0.60;;;;;;;;;;5020582;28;20651;-87
2023/01/17 05:16:01;;;;;;;0.70;0.57;;;;;;;;;;5009702;28;20556;-88
2023/01/17 05:19:05;;;;;;;0.90;0.70;;;;;;;;;;5019900;28;20556;-87
2023/01/17 05:22:14;;;;;;;2.00;0.70;;;;;;;;;;5019927;28;20611;-87
2023/01/17 05:25:18;;;;;;;0.60;0.50;;;;;;;;;;5017807;28;20560;-88
2023/01/17 05:28:22;;;;;;;0.77;0.60;;;;;;;;;;5018041;28;20599;-88
2023/01/17 05:31:26;;;;;;;0.77;0.57;;;;;;;;;;5017610;28;20662;-88
2023/01/17 05:34:31;;;;;;;2.77;0.60;;;;;;;;;;5028125;28;20551;-88
2023/01/17 05:37:35;;;;;;;1.53;0.60;;;;;;;;;;5017172;28;20888;-88
2023/01/17 05:40:40;;;;;;;1.07;0.70;;;;;;;;;;5005701;28;20547;-87
2023/01/17 05:43:44;;;;;;;1.23;0.70;;;;;;;;;;5016522;28;20610;-88
2023/01/17 05:46:48;;;;;;;1.07;0.60;;;;;;;;;;5016012;28;20560;-88
2023/01/17 05:49:52;;;;;;;0.60;0.60;;;;;;;;;;5014810;28;20904;-87
2023/01/17 05:53:02;;;;;;;3.97;1.00;;;;;;;;;;5014807;28;20995;-88
2023/01/17 05:56:07;;;;;;;2.10;0.63;;;;;;;;;;5015058;28;20556;-87
2023/01/17 05:59:11;;;;;;;1.33;0.63;;;;;;;;;;5002879;28;20548;-88
2023/01/17 06:02:15;;;;;;;3.60;0.93;;;;;;;;;;5025915;28;20622;-87
2023/01/17 06:05:20;;;;;;;0.90;0.70;;;;;;;;;;5013904;28;20924;-88
2023/01/17 06:08:24;;;;;;;2.10;0.73;;;;;;;;;;5002118;28;20599;-88
2023/01/17 06:11:28;;;;;;;1.80;0.70;;;;;;;;;;5014487;28;20651;-87
2023/01/17 06:14:32;;;;;;;1.03;0.70;;;;;;;;;;5025986;28;20548;-87
2023/01/17 06:17:36;;;;;;;3.00;0.93;;;;;;;;;;5002191;28;20552;-87
2023/01/17 06:20:41;;;;;;;1.77;0.90;;;;;;;;;;5013516;28;20556;-87
2023/01/17 06:23:45;;;;;;;1.60;0.80;;;;;;;;;;5025206;28;20595;-87
2023/01/17 06:26:49;;;;;;;3.43;0.90;;;;;;;;;;5024460;28;20556;-88
2023/01/17 06:29:54;;;;;;;1.70;0.83;;;;;;;;;;5013176;28;20544;-87
2023/01/17 06:32:58;;;;;;;1.80;0.60;;;;;;;;;;5024338;28;20647;-87
2023/01/17 06:36:02;;;;;;;3.80;0.93;;;;;;;;;;5012592;28;20552;-88
2023/01/17 06:39:08;;;;;;;3.93;0.80;;;;;;;;;;5012781;28;20544;-88
2023/01/17 06:42:13;;;;;;;1.07;0.70;;;;;;;;;;5012558;28;20615;-88
2023/01/17 06:45:18;;;;;;;2.20;0.77;;;;;;;;;;5012861;28;21166;-87
2023/01/17 06:48:21;;;;;;;0.90;0.80;;;;;;;;;;5023391;28;20556;-87
2023/01/17 06:51:26;;;;;;;1.67;0.87;;;;;;;;;;5012216;28;20655;-88
2023/01/17 06:54:30;;;;;;;1.20;0.73;;;;;;;;;;5023408;28;20544;-88
2023/01/17 06:57:35;;;;;;;1.10;0.73;;;;;;;;;;5023694;28;20892;-87
2023/01/17 07:00:39;;;;;;;2.60;0.80;;;;;;;;;;5024630;28;20552;-87
2023/01/17 07:03:43;;;;;;;0.60;0.60;;;;;;;;;;5012924;28;20548;-87
2023/01/17 07:06:47;;;;;;;1.13;0.73;;;;;;;;;;5013641;28;20556;-87
2023/01/17 07:09:51;;;;;;;1.20;0.70;;;;;;;;;;5014090;28;20900;-86
2023/01/17 07:12:59;;;;;;;4.00;0.80;;;;;;;;;;5012757;28;21241;-87
2023/01/17 07:16:04;;;;;;;1.93;0.63;;;;;;;;;;5024492;28;20548;-87
2023/01/17 07:19:08;;;;;;;1.03;0.80;;;;;;;;;;5001787;28;20900;-87
2023/01/17 07:22:13;;;;;;;0.80;0.80;;;;;;;;;;5024399;28;20623;-87
2023/01/17 07:25:18;;;;;;;3.30;0.90;;;;;;;;;;5002310;28;20548;-87
2023/01/17 07:28:24;;;;;;;3.03;0.80;;;;;;;;;;5001596;28;21117;-87
2023/01/17 07:31:28;;;;;;;1.73;0.93;;;;;;;;;;5013095;28;20619;-87
2023/01/17 07:34:32;;;;;;;2.23;1.33;;;;;;;;;;5012941;28;20556;-87
2023/01/17 07:37:37;;;;;;;1.13;1.03;;;;;;;;;;5012942;28;20547;-87
2023/01/17 07:40:42;;;;;;;1.33;1.00;;;;;;;;;;5023631;28;20548;-87
2023/01/17 07:43:46;;;;;;;3.17;1.33;;;;;;;;;;5012593;28;20610;-87
2023/01/17 07:46:53;;;;;;;3.00;1.43;;;;;;;;;;5012069;28;20552;-87
2023/01/17 07:49:57;;;;;;;3.27;1.27;;;;;;;;;;5023709;28;20928;-87
2023/01/17 07:53:02;;;;;;;1.50;1.10;;;;;;;;;;5024100;28;20651;-87
2023/01/17 07:56:07;;;;;;;2.03;1.00;;;;;;;;;;5001540;28;20548;-87
2023/01/17 07:59:10;;;;;;;1.10;0.90;;;;;;;;;;5023916;28;20548;-87
2023/01/17 08:02:16;;;;;;;2.27;1.20;;;;;;;;;;5012727;28;20611;-87
2023/01/17 08:05:20;;;;;;;2.20;1.23;;;;;;;;;;5012169;28;20552;-87
2023/01/17 08:08:25;;;;;;;1.60;1.10;;;;;;;;;;5023806;28;20551;-87
2023/01/17 08:11:29;;;;;;;1.23;1.00;;;;;;;;;;5023466;28;20630;-87
2023/01/17 08:14:33;;;;;;;0.80;0.80;;;;;;;;;;5023548;28;20599;-87
2023/01/17 08:17:37;;;;;;;1.07;0.93;;;;;;;;;;5001313;28;21107;-87
2023/01/17 08:20:44;;;;;;;2.00;1.13;;;;;;;;;;5011750;28;20548;-87
2023/01/17 08:23:49;;;;;;;1.87;1.50;;;;;;;;;;5011522;28;20548;-87
2023/01/17 08:26:55;;;;;;;1.40;1.00;;;;;;;;;;5000546;28;20899;-87
2023/01/17 08:29:59;;;;;;;2.03;1.10;;;;;;;;;;5023161;28;21123;-87
2023/01/17 08:33:03;;;;;;;1.50;1.00;;;;;;;;;;5022382;28;21225;-87
2023/01/17 08:36:07;;;;;;;4.83;3.03;;;;;;;;;;4999870;28;20901;-88
2023/01/17 08:39:11;;;;;;;1.90;1.40;;;;;;;;;;5010261;28;20556;-88
2023/01/17 08:42:16;;;;;;;2.53;1.43;;;;;;;;;;5021450;28;20213;-88
2023/01/17 08:45:19;;;;;;;2.90;1.77;;;;;;;;;;5032240;28;20619;-88
2023/01/17 08:48:24;;;;;;;3.37;1.60;;;;;;;;;;5021401;28;20185;-88
2023/01/17 08:51:28;;;;;;;1.97;1.27;;;;;;;;;;5021739;28;20623;-88
2023/01/17 08:54:32;;;;;;;1.50;1.30;;;;;;;;;;5033654;28;20182;-88
2023/01/17 08:57:36;;;;;;;1.60;1.10;;;;;;;;;;5009892;28;20552;-88
2023/01/17 09:00:41;;;;;;;1.23;1.00;;;;;;;;;;5012303;28;20188;-88
2023/01/17 09:03:48;;;;;;;2.73;1.30;;;;;;;;;;5013560;28;20539;-88
2023/01/17 09:06:52;;;;;;;3.20;1.30;;;;;;;;;;5025069;28;20173;-88
2023/01/17 09:09:56;;;;;;;2.30;1.63;;;;;;;;;;5013753;28;20196;-88
2023/01/17 09:13:00;;;;;;;3.83;1.53;;;;;;;;;;5024516;28;20228;-87
2023/01/17 09:16:04;;;;;;;2.30;1.50;;;;;;;;;;5002501;28;20181;-88
2023/01/17 09:19:09;;;;;;;2.03;1.73;;;;;;;;;;5013525;28;20636;-88
2023/01/17 09:22:13;;;;;;;3.60;2.13;;;;;;;;;;5013502;28;20205;-87
2023/01/17 09:25:17;;;;;;;2.83;1.60;;;;;;;;;;5015017;28;20193;-87
2023/01/17 09:28:21;;;;;;;4.30;1.33;;;;;;;;;;5025890;28;20635;-87
2023/01/17 09:31:26;;;;;;;1.50;1.20;;;;;;;;;;5014305;28;20556;-87
2023/01/17 09:34:30;;;;;;;2.73;2.53;;;;;;;;;;5027543;28;20482;-87
2023/01/17 09:37:35;;;;;;;2.37;2.17;;;;;;;;;;5026043;28;20177;-87
2023/01/17 09:40:45;;;;;;;1.87;1.40;;;;;;;;;;5015213;28;20540;-87
2023/01/17 09:43:58;;;;;;;3.43;1.57;;;;;;;;;;5014547;28;20672;-87
2023/01/17 09:47:12;;;;;;;2.63;1.27;;;;;;;;;;5014355;28;20177;-87
2023/01/17 09:50:45;;;;;;;2.40;1.40;;;;;;;;;;5015285;28;20177;-87
2023/01/17 09:53:50;;;;;;;2.27;1.33;;;;;;;;;;5014037;28;20208;-87
2023/01/17 09:57:17;;;;;;;3.50;1.43;;;;;;;;;;5013961;28;20521;-87
2023/01/17 10:00:37;;;;;;;1.97;1.50;;;;;;;;;;5025694;28;20177;-87
2023/01/17 10:03:50;;;;;;;4.10;1.33;;;;;;;;;;5014951;28;20174;-87
2023/01/17 10:07:30;;;;;;;3.10;1.30;;;;;;;;;;5014432;28;20185;-86
2023/01/17 10:10:46;;;;;;;1.27;1.00;;;;;;;;;;5002788;28;20209;-87
2023/01/17 10:14:02;;;;;;;6.80;3.60;;;;;;;;;;5002753;28;20213;-87
2023/01/17 10:17:06;;;;;;;1.30;1.07;;;;;;;;;;5013679;28;20188;-87
2023/01/17 10:20:32;;;;;;;2.63;1.10;;;;;;;;;;5025256;28;20176;-87
2023/01/17 10:23:45;;;;;;;5.83;1.60;;;;;;;;;;5014127;28;20173;-87
2023/01/17 10:26:55;;;;;;;2.80;1.63;;;;;;;;;;5002528;28;20173;-87
2023/01/17 10:30:20;;;;;;;2.63;1.00;;;;;;;;;;5025566;28;20177;-88
2023/01/17 10:33:29;;;;;;;1.10;0.73;;;;;;;;;;5013093;28;20212;-87
2023/01/17 10:36:38;;;;;;;2.83;1.00;;;;;;;;;;5024529;28;20173;-87
2023/01/17 10:39:45;;;;;;;2.27;1.00;;;;;;;;;;5024976;28;20186;-87
2023/01/17 10:43:03;;;;;;;1.80;1.13;;;;;;;;;;5013498;28;20208;-87
2023/01/17 10:46:15;;;;;;;1.17;0.80;;;;;;;;;;5013502;28;20201;-87
2023/01/17 10:49:25;;;;;;;2.43;1.07;;;;;;;;;;5024665;28;20532;-87
2023/01/17 10:52:39;;;;;;;1.40;1.00;;;;;;;;;;5013270;28;20220;-87
2023/01/17 10:55:52;;;;;;;3.67;1.90;;;;;;;;;;5024599;28;20408;-87
2023/01/17 10:59:05;;;;;;;3.60;1.00;;;;;;;;;;5013497;28;20640;-88
2023/01/17 11:02:29;;;;;;;1.17;0.60;;;;;;;;;;5011556;28;20213;-87
2023/01/17 11:05:33;;;;;;;0.60;0.60;;;;;;;;;;5000491;28;20183;-88
2023/01/17 11:09:13;;;;;;;0.80;0.80;;;;;;;;;;5012066;28;20196;-88
2023/01/17 11:12:19;;;;;;;1.23;0.70;;;;;;;;;;4965405;28;20227;-87
2023/01/17 11:15:24;;;;;;;0.90;0.70;;;;;;;;;;5022666;28;20193;-87
2023/01/17 11:18:31;;;;;;;0.73;0.60;;;;;;;;;;5011465;28;20176;-88
2023/01/17 11:21:38;;;;;;;0.83;0.80;;;;;;;;;;5011726;28;20548;-88
2023/01/17 11:24:53;;;;;;;1.40;0.67;;;;;;;;;;5023208;28;20401;-88
2023/01/17 11:28:17;;;;;;;0.80;0.70;;;;;;;;;;5022486;28;20543;-88
2023/01/17 11:31:24;;;;;;;2.50;1.10;;;;;;;;;;4999546;28;20216;-88
2023/01/17 11:34:30;;;;;;;1.10;0.70;;;;;;;;;;5022498;28;20552;-88
2023/01/17 11:37:35;;;;;;;1.30;1.00;;;;;;;;;;5022269;28;20200;-87
2023/01/17 11:40:49;;;;;;;1.33;0.90;;;;;;;;;;5011121;28;20667;-88
2023/01/17 11:43:58;;;;;;;1.03;0.70;;;;;;;;;;5011027;28;20200;-88
2023/01/17 11:47:22;;;;;;;1.93;0.77;;;;;;;;;;5022070;28;20181;-87
2023/01/17 11:50:26;;;;;;;1.50;1.10;;;;;;;;;;5010608;28;20181;-87
2023/01/17 11:53:33;;;;;;;8.20;1.03;;;;;;;;;;5010730;28;20205;-88
2023/01/17 11:56:39;;;;;;;2.17;1.20;;;;;;;;;;5010938;28;20181;-88
2023/01/17 11:59:44;;;;;;;1.73;1.00;;;;;;;;;;5022137;28;20184;-88
2023/01/17 12:02:57;;;;;;;1.63;0.80;;;;;;;;;;5010743;28;20220;-87
2023/01/17 12:06:20;;;;;;;1.47;0.93;;;;;;;;;;5011874;28;20636;-88
2023/01/17 12:09:49;;;;;;;2.13;1.00;;;;;;;;;;5022497;28;20177;-88
2023/01/17 12:16:53;;;;;;;1.87;1.00;;;;;;;;;;5011058;28;20177;-87
2023/01/17 12:19:59;;;;;;;1.70;1.00;;;;;;;;;;5000565;28;20177;-87
2023/01/17 12:23:23;;;;;;;1.40;0.90;;;;;;;;;;5011314;28;20208;-87
2023/01/17 12:26:33;;;;;;;1.53;1.10;;;;;;;;;;5011264;28;20181;-87
2023/01/17 12:29:45;;;;;;;1.30;0.93;;;;;;;;;;5011209;28;20181;-87
2023/01/17 12:32:59;;;;;;;1.73;1.07;;;;;;;;;;5011023;28;20209;-88
2023/01/17 12:36:16;;;;;;;2.90;1.00;;;;;;;;;;5014362;28;20644;-87
2023/01/17 12:39:27;;;;;;;1.10;0.80;;;;;;;;;;5004356;28;20177;-87
2023/01/17 12:42:37;;;;;;;2.07;1.20;;;;;;;;;;5015031;28;20216;-87
2023/01/17 12:45:44;;;;;;;2.60;1.10;;;;;;;;;;5026205;28;20196;-87
2023/01/17 12:49:03;;;;;;;1.27;1.07;;;;;;;;;;5014961;28;20200;-87
2023/01/17 12:52:23;;;;;;;1.20;1.10;;;;;;;;;;5015417;28;20216;-87
2023/01/17 12:55:53;;;;;;;2.47;1.30;;;;;;;;;;5014905;28;20170;-87
2023/01/17 12:59:33;;;;;;;1.67;0.90;;;;;;;;;;5015569;28;20181;-87
2023/01/17 13:02:44;;;;;;;2.40;1.30;;;;;;;;;;5014698;28;20212;-87
2023/01/17 13:05:50;;;;;;;1.13;1.00;;;;;;;;;;5014487;28;20539;-87
2023/01/17 13:08:58;;;;;;;2.70;0.97;;;;;;;;;;5014285;28;20192;-87
2023/01/17 13:12:18;;;;;;;2.90;1.10;;;;;;;;;;5025083;28;20212;-87
2023/01/17 13:15:24;;;;;;;1.00;0.90;;;;;;;;;;5015268;28;20177;-87
2023/01/17 13:18:32;;;;;;;2.03;0.80;;;;;;;;;;5016340;28;20173;-87
2023/01/17 13:21:36;;;;;;;2.10;1.00;;;;;;;;;;5026275;28;20213;-87
2023/01/17 13:24:56;;;;;;;1.13;0.80;;;;;;;;;;5014239;28;20184;-87
2023/01/17 13:28:29;;;;;;;1.80;0.90;;;;;;;;;;5025401;28;20180;-87
2023/01/17 13:32:11;;;;;;;1.63;0.90;;;;;;;;;;5013540;28;20208;-88
2023/01/17 13:36:09;;;;;;;1.73;0.97;;;;;;;;;;5012862;28;20213;-88
2023/01/17 13:39:25;;;;;;;1.97;1.00;;;;;;;;;;4965158;28;20197;-87
2023/01/17 13:42:47;;;;;;;1.40;0.77;;;;;;;;;;5013441;28;20716;-86
2023/01/17 13:45:55;;;;;;;3.23;1.00;;;;;;;;;;5001443;28;20165;-87
2023/01/17 13:49:22;;;;;;;1.20;0.83;;;;;;;;;;5024487;28;20664;-86
2023/01/17 13:52:30;;;;;;;2.60;1.10;;;;;;;;;;5012995;28;20592;-87
2023/01/17 13:55:46;;;;;;;2.07;1.13;;;;;;;;;;5024363;28;20189;-86
2023/01/17 13:59:01;;;;;;;2.10;1.10;;;;;;;;;;5012924;28;20533;-87
2023/01/17 14:02:30;;;;;;;1.80;1.10;;;;;;;;;;5012988;28;20216;-88
2023/01/17 14:05:38;;;;;;;1.10;0.87;;;;;;;;;;5013096;28;20513;-88
2023/01/17 14:08:44;;;;;;;1.10;0.90;;;;;;;;;;5001855;28;20172;-85
2023/01/17 14:11:55;;;;;;;2.67;0.77;;;;;;;;;;5012519;28;20213;-86
2023/01/17 14:15:01;;;;;;;1.90;1.00;;;;;;;;;;5012669;28;20205;-88
2023/01/17 14:18:31;;;;;;;3.13;1.50;;;;;;;;;;5012634;28;20192;-89
2023/01/17 14:21:35;;;;;;;1.73;1.10;;;;;;;;;;5012542;28;20216;-87
2023/01/17 14:25:08;;;;;;;1.77;1.00;;;;;;;;;;5012346;28;20173;-87
2023/01/17 14:28:28;;;;;;;1.43;0.90;;;;;;;;;;5011983;28;20185;-87
2023/01/17 14:31:32;;;;;;;2.07;0.93;;;;;;;;;;5012106;28;20217;-87
2023/01/17 14:34:36;;;;;;;1.20;1.00;;;;;;;;;;5012008;28;20212;-87
2023/01/17 14:37:49;;;;;;;2.00;0.90;;;;;;;;;;5012060;28;20181;-87
2023/01/17 14:41:06;;;;;;;1.83;1.20;;;;;;;;;;5022993;28;20173;-87
2023/01/17 14:44:11;;;;;;;1.80;1.20;;;;;;;;;;5022910;28;20193;-87
2023/01/17 14:47:15;;;;;;;1.80;1.07;;;;;;;;;;5011215;28;20534;-88
2023/01/17 14:50:23;;;;;;;1.50;1.00;;;;;;;;;;5011970;28;20177;-88
2023/01/17 14:53:30;;;;;;;1.70;1.00;;;;;;;;;;5022916;28;20898;-88
2023/01/17 14:56:35;;;;;;;1.53;1.20;;;;;;;;;;5022865;28;20311;-88
2023/01/17 14:59:39;;;;;;;1.73;1.00;;;;;;;;;;5000605;28;20186;-87
2023/01/17 15:02:45;;;;;;;1.13;1.03;;;;;;;;;;5011194;28;20212;-88
2023/01/17 15:05:52;;;;;;;1.27;0.90;;;;;;;;;;5000153;28;20172;-88
2023/01/17 15:08:59;;;;;;;2.47;1.33;;;;;;;;;;5011208;28;20513;-88
2023/01/17 15:12:09;;;;;;;2.33;1.67;;;;;;;;;;5000160;28;20217;-88
2023/01/17 15:15:29;;;;;;;3.33;1.50;;;;;;;;;;5011067;28;20205;-88
2023/01/17 15:18:38;;;;;;;2.73;1.50;;;;;;;;;;5011524;28;20177;-88
2023/01/17 15:21:44;;;;;;;3.00;1.93;;;;;;;;;;5011802;28;20584;-87
2023/01/17 15:24:49;;;;;;;2.13;1.30;;;;;;;;;;5023595;28;20177;-87
2023/01/17 15:27:53;;;;;;;3.00;1.40;;;;;;;;;;5010736;28;21107;-88
2023/01/17 15:31:12;;;;;;;2.00;1.40;;;;;;;;;;5010775;28;20563;-88
2023/01/17 15:34:24;;;;;;;2.60;1.63;;;;;;;;;;5011004;28;20610;-87
2023/01/17 15:37:31;;;;;;;2.33;1.57;;;;;;;;;;5022204;28;21091;-87
2023/01/17 15:40:42;;;;;;;5.70;1.40;;;;;;;;;;5021845;28;20263;-87
2023/01/17 15:43:46;;;;;;;4.47;1.43;;;;;;;;;;5011396;28;20201;-88
2023/01/17 15:46:51;;;;;;;3.17;1.77;;;;;;;;;;4999350;28;20177;-88
2023/01/17 15:49:55;;;;;;;1.93;1.63;;;;;;;;;;5010487;28;20548;-87
2023/01/17 15:53:04;;;;;;;5.23;1.93;;;;;;;;;;5021956;28;20615;-88
2023/01/17 15:56:37;;;;;;;2.37;1.80;;;;;;;;;;5010801;28;20983;-87
2023/01/17 15:59:45;;;;;;;6.57;1.57;;;;;;;;;;5010875;28;20548;-87
2023/01/17 16:02:57;;;;;;;2.43;1.40;;;;;;;;;;5010373;28;20216;-87
2023/01/17 16:06:03;;;;;;;2.30;1.60;;;;;;;;;;5022067;28;20548;-88
2023/01/17 16:09:19;;;;;;;2.80;1.30;;;;;;;;;;5001011;28;20947;-88
2023/01/17 16:12:23;;;;;;;1.43;1.23;;;;;;;;;;5014513;28;20208;-87
2023/01/17 16:15:28;;;;;;;5.07;1.80;;;;;;;;;;5037719;28;20599;-87
2023/01/17 16:18:32;;;;;;;5.97;2.10;;;;;;;;;;5014633;28;20591;-87
2023/01/17 16:21:36;;;;;;;4.37;2.00;;;;;;;;;;5026060;28;20622;-87
2023/01/17 16:24:40;;;;;;;4.50;1.60;;;;;;;;;;5003760;28;20552;-87
2023/01/17 16:27:45;;;;;;;2.83;2.00;;;;;;;;;;5003365;28;20609;-88
2023/01/17 16:30:52;;;;;;;2.00;1.73;;;;;;;;;;5014375;28;20599;-87
2023/01/17 16:33:56;;;;;;;12.87;5.17;;;;;;;;;;5038202;28;20948;-87
2023/01/17 16:37:02;;;;;;;17.27;7.37;;;;;;;;;;5015293;28;20595;-87
2023/01/17 16:40:07;;;;;;;8.30;3.60;;;;;;;;;;5037359;28;20547;-88
2023/01/17 16:43:14;;;;;;;6.63;3.33;;;;;;;;;;5014030;28;20551;-87
2023/01/17 16:46:19;;;;;;;3.27;2.03;;;;;;;;;;5013953;28;20544;-88
2023/01/17 16:49:23;;;;;;;4.60;2.17;;;;;;;;;;5025574;28;20548;-87
2023/01/17 16:52:27;;;;;;;3.37;2.10;;;;;;;;;;5003031;28;20983;-88
2023/01/17 16:55:32;;;;;;;5.50;3.23;;;;;;;;;;5014115;28;20600;-88
2023/01/17 16:58:36;;;;;;;7.97;4.43;;;;;;;;;;5016332;28;21118;-87
2023/01/17 17:01:40;;;;;;;5.83;3.80;;;;;;;;;;5017240;28;20619;-87
2023/01/17 17:04:45;;;;;;;7.00;4.80;;;;;;;;;;5027344;28;20595;-88
2023/01/17 17:07:51;;;;;;;7.93;5.10;;;;;;;;;;5014148;28;20587;-88
2023/01/17 17:11:07;;;;;;;18.97;9.77;;;;;;;;;;5025378;28;20544;-87
2023/01/17 17:14:11;;;;;;;15.57;8.07;;;;;;;;;;5013895;28;20559;-87
2023/01/17 17:17:15;;;;;;;20.97;11.07;;;;;;;;;;5025399;28;20599;-87
2023/01/17 17:20:20;;;;;;;16.50;9.67;;;;;;;;;;5015658;28;20599;-87
2023/01/17 17:23:25;;;;;;;17.80;9.63;;;;;;;;;;5004458;28;20936;-87
2023/01/17 17:26:33;;;;;;;19.83;9.70;;;;;;;;;;5014334;28;20595;-88
2023/01/17 17:29:37;;;;;;;13.43;7.87;;;;;;;;;;5014167;28;20552;-88
2023/01/17 17:32:44;;;;;;;20.37;11.50;;;;;;;;;;5025059;28;20630;-88
2023/01/17 17:35:48;;;;;;;21.13;10.83;;;;;;;;;;5013517;28;20610;-87
2023/01/17 17:38:54;;;;;;;18.27;9.37;;;;;;;;;;5002688;28;20561;-88
2023/01/17 17:41:58;;;;;;;12.23;7.47;;;;;;;;;;5024945;28;20975;-88
2023/01/17 17:45:02;;;;;;;8.07;5.27;;;;;;;;;;5025594;28;20614;-87
2023/01/17 17:48:07;;;;;;;7.90;4.20;;;;;;;;;;5014275;28;20619;-87
2023/01/17 17:51:39;;;;;;;6.97;3.70;;;;;;;;;;5012686;28;20990;-87
2023/01/17 17:54:43;;;;;;;4.07;3.03;;;;;;;;;;5016067;28;20600;-88
2023/01/17 17:57:47;;;;;;;5.10;2.70;;;;;;;;;;5017113;28;20552;-88
2023/01/17 18:00:51;;;;;;;4.57;3.27;;;;;;;;;;5017496;28;20552;-87
2023/01/17 18:03:59;;;;;;;6.17;3.43;;;;;;;;;;5007106;28;20556;-87
2023/01/17 18:07:03;;;;;;;4.97;3.10;;;;;;;;;;5028388;28;20544;-87
2023/01/17 18:10:09;;;;;;;4.30;2.93;;;;;;;;;;5016661;28;20552;-87
2023/01/17 18:13:13;;;;;;;5.50;3.80;;;;;;;;;;5027127;28;20595;-88
2023/01/17 18:16:24;;;;;;;13.03;6.03;;;;;;;;;;5026865;28;20642;-87
2023/01/17 18:19:28;;;;;;;10.83;6.27;;;;;;;;;;5005074;28;20556;-86
2023/01/17 18:22:33;;;;;;;14.03;9.07;;;;;;;;;;5022464;28;20627;-87
2023/01/17 18:25:38;;;;;;;14.43;4.37;;;;;;;;;;5035139;28;20866;-87
2023/01/17 18:28:42;;;;;;;5.57;3.50;;;;;;;;;;5045939;28;20552;-87
2023/01/17 18:31:48;;;;;;;4.90;3.40;;;;;;;;;;5023609;28;20615;-87
2023/01/17 18:34:53;;;;;;;6.17;4.40;;;;;;;;;;5011010;28;20639;-87
2023/01/17 18:37:57;;;;;;;16.83;7.93;;;;;;;;;;5022462;28;20559;-86
2023/01/17 18:41:23;;;;;;;20.73;10.87;;;;;;;;;;5021395;28;20544;-87
2023/01/17 18:44:28;;;;;;;16.87;9.90;;;;;;;;;;5020778;28;20611;-87
2023/01/17 18:47:33;;;;;;;18.17;7.87;;;;;;;;;;5032182;28;20595;-87
2023/01/17 18:50:37;;;;;;;12.33;6.87;;;;;;;;;;5009284;28;20556;-87
2023/01/17 18:53:43;;;;;;;9.03;5.57;;;;;;;;;;5020263;28;20900;-87
2023/01/17 18:56:47;;;;;;;10.87;5.07;;;;;;;;;;5020536;28;20612;-87
2023/01/17 18:59:52;;;;;;;5.57;4.10;;;;;;;;;;5019635;28;20630;-87
2023/01/17 19:02:56;;;;;;;5.67;3.40;;;;;;;;;;5030243;28;20623;-86
2023/01/17 19:06:01;;;;;;;6.90;4.70;;;;;;;;;;5018938;28;20548;-87
2023/01/17 19:09:06;;;;;;;9.63;5.10;;;;;;;;;;5006805;28;20544;-87
2023/01/17 19:12:10;;;;;;;8.17;5.07;;;;;;;;;;5028795;28;20619;-86
2023/01/17 19:15:15;;;;;;;9.67;5.07;;;;;;;;;;5017701;28;20603;-87
2023/01/17 19:18:19;;;;;;;7.17;4.47;;;;;;;;;;5040422;28;20556;-87
2023/01/17 19:21:26;;;;;;;8.00;4.23;;;;;;;;;;5027743;28;20627;-87
2023/01/17 19:24:30;;;;;;;6.77;3.87;;;;;;;;;;5005356;28;20591;-86
2023/01/17 19:27:34;;;;;;;5.17;3.73;;;;;;;;;;5016256;28;20595;-87
2023/01/17 19:30:39;;;;;;;6.17;3.90;;;;;;;;;;5015893;28;20548;-87
2023/01/17 19:33:45;;;;;;;5.33;3.40;;;;;;;;;;5016206;28;20548;-87
2023/01/17 19:36:51;;;;;;;5.97;3.70;;;;;;;;;;5005143;28;20600;-87
2023/01/17 19:39:56;;;;;;;5.90;3.70;;;;;;;;;;5026968;28;20560;-86
2023/01/17 19:43:00;;;;;;;7.67;3.83;;;;;;;;;;5016538;28;20623;-87
2023/01/17 19:46:04;;;;;;;6.07;3.40;;;;;;;;;;5025648;28;20544;-86
2023/01/17 19:49:09;;;;;;;4.90;3.67;;;;;;;;;;5013703;28;20548;-87
2023/01/17 19:52:13;;;;;;;5.73;3.73;;;;;;;;;;5014042;28;20622;-87
2023/01/17 19:55:20;;;;;;;5.10;3.30;;;;;;;;;;5024783;28;20979;-87
2023/01/17 19:58:24;;;;;;;3.47;2.93;;;;;;;;;;5012859;28;20556;-87
2023/01/17 20:01:30;;;;;;;4.30;3.33;;;;;;;;;;5013627;28;20619;-87
2023/01/17 20:04:34;;;;;;;3.90;3.37;;;;;;;;;;5012713;28;20560;-88
2023/01/17 20:07:38;;;;;;;4.57;3.27;;;;;;;;;;5002009;28;20544;-87
2023/01/17 20:10:42;;;;;;;4.80;3.60;;;;;;;;;;5012942;28;20607;-87
2023/01/17 20:13:50;;;;;;;6.03;3.70;;;;;;;;;;5013087;28;20552;-87
2023/01/17 20:16:54;;;;;;;5.87;3.60;;;;;;;;;;5002133;28;20611;-87